createdAt,value
2016-11-04T00:00:43.943Z,1009.6
2016-11-04T00:01:43.927Z,1009.56
2016-11-04T00:02:43.910Z,1009.58
2016-11-04T00:03:43.895Z,1009.53
2016-11-04T00:04:43.883Z,1009.54
2016-11-04T00:05:44.263Z,1009.55
2016-11-04T00:06:43.847Z,1009.55
2016-11-04T00:07:43.824Z,1009.57
2016-11-04T00:08:43.809Z,1009.56
2016-11-04T00:09:43.790Z,1009.6
2016-11-04T00:10:43.775Z,1009.55
2016-11-04T00:11:43.756Z,1009.53
2016-11-04T00:12:43.741Z,1009.56
2016-11-04T00:13:43.722Z,1009.52
2016-11-04T00:14:43.704Z,1009.5
2016-11-04T00:15:43.687Z,1009.53
2016-11-04T00:16:43.671Z,1009.52
2016-11-04T00:17:43.653Z,1009.51
2016-11-04T00:18:43.636Z,1009.52
2016-11-04T00:19:43.619Z,1009.55
2016-11-04T00:20:43.604Z,1009.55
2016-11-04T00:21:43.591Z,1009.51
2016-11-04T00:22:43.569Z,1009.49
2016-11-04T00:23:43.552Z,1009.43
2016-11-04T00:24:43.536Z,1009.45
2016-11-04T00:25:43.515Z,1009.42
2016-11-04T00:26:43.501Z,1009.47
2016-11-04T00:27:43.484Z,1009.48
2016-11-04T00:28:43.467Z,1009.51
2016-11-04T00:29:43.449Z,1009.43
2016-11-04T00:30:43.432Z,1009.47
2016-11-04T00:31:43.416Z,1009.44
2016-11-04T00:32:43.397Z,1009.43
2016-11-04T00:33:43.381Z,1009.45
2016-11-04T00:34:43.364Z,1009.46
2016-11-04T00:35:43.347Z,1009.48
2016-11-04T00:36:43.331Z,1009.46
2016-11-04T00:37:43.312Z,1009.44
2016-11-04T00:38:43.295Z,1009.43
2016-11-04T00:39:43.279Z,1009.42
2016-11-04T00:40:43.262Z,1009.42
2016-11-04T00:41:43.245Z,1009.36
2016-11-04T00:42:43.229Z,1009.38
2016-11-04T00:43:43.212Z,1009.38
2016-11-04T00:44:43.197Z,1009.4
2016-11-04T00:45:43.177Z,1009.37
2016-11-04T00:46:43.162Z,1009.32
2016-11-04T00:47:43.142Z,1009.38
2016-11-04T00:48:43.127Z,1009.37
2016-11-04T00:49:43.109Z,1009.36
2016-11-04T00:50:43.092Z,1009.34
2016-11-04T00:51:43.075Z,1009.35
2016-11-04T00:52:43.059Z,1009.29
2016-11-04T00:53:43.042Z,1009.34
2016-11-04T00:54:43.026Z,1009.42
2016-11-04T00:55:43.007Z,1009.36
2016-11-04T00:56:42.991Z,1009.37
2016-11-04T00:57:42.976Z,1009.37
2016-11-04T00:58:42.958Z,1009.38
2016-11-04T00:59:42.940Z,1009.34
2016-11-04T01:00:42.922Z,1009.38
2016-11-04T01:01:42.906Z,1009.37
2016-11-04T01:02:42.888Z,1009.38
2016-11-04T01:03:42.871Z,1009.36
2016-11-04T01:04:42.855Z,1009.38
2016-11-04T01:05:42.839Z,1009.34
2016-11-04T01:06:42.821Z,1009.32
2016-11-04T01:07:42.803Z,1009.33
2016-11-04T01:08:42.787Z,1009.35
2016-11-04T01:09:42.770Z,1009.32
2016-11-04T01:10:42.750Z,1009.31
2016-11-04T01:11:42.745Z,1009.31
2016-11-04T01:12:42.719Z,1009.3
2016-11-04T01:13:42.700Z,1009.28
2016-11-04T01:14:42.684Z,1009.2
2016-11-04T01:15:42.667Z,1009.19
2016-11-04T01:16:42.650Z,1009.13
2016-11-04T01:17:42.633Z,1009.17
2016-11-04T01:18:42.616Z,1009.13
2016-11-04T01:19:42.599Z,1009.11
2016-11-04T01:20:42.582Z,1009.09
2016-11-04T01:21:42.565Z,1009.04
2016-11-04T01:22:42.547Z,1009.1
2016-11-04T01:23:42.531Z,1009.06
2016-11-04T01:24:42.516Z,1009.09
2016-11-04T01:25:42.495Z,1009.13
2016-11-04T01:26:42.480Z,1009.17
2016-11-04T01:27:42.461Z,1009.12
2016-11-04T01:28:42.445Z,1009.05
2016-11-04T01:29:42.428Z,1009.07
2016-11-04T01:30:42.412Z,1009.06
2016-11-04T01:31:42.393Z,1008.94
2016-11-04T01:32:42.375Z,1008.91
2016-11-04T01:33:42.358Z,1008.91
2016-11-04T01:34:42.342Z,1008.88
2016-11-04T01:35:42.325Z,1008.86
2016-11-04T01:36:42.309Z,1008.87
2016-11-04T01:37:42.291Z,1008.79
2016-11-04T01:38:42.272Z,1008.79
2016-11-04T01:39:42.255Z,1008.79
2016-11-04T01:40:42.238Z,1008.75
2016-11-04T01:41:42.222Z,1008.77
2016-11-04T01:42:42.203Z,1008.76
2016-11-04T01:43:42.186Z,1008.76
2016-11-04T01:44:42.168Z,1008.75
2016-11-04T01:45:42.153Z,1008.7
2016-11-04T01:46:42.139Z,1008.76
2016-11-04T01:47:42.117Z,1008.77
2016-11-04T01:48:42.101Z,1008.73
2016-11-04T01:49:42.081Z,1008.75
2016-11-04T01:50:42.064Z,1008.7
2016-11-04T01:51:42.048Z,1008.72
2016-11-04T01:52:42.030Z,1008.67
2016-11-04T01:53:42.014Z,1008.72
2016-11-04T01:54:41.998Z,1008.67
2016-11-04T01:55:41.978Z,1008.63
2016-11-04T01:56:41.961Z,1008.59
2016-11-04T01:57:41.944Z,1008.59
2016-11-04T01:58:41.926Z,1008.59
2016-11-04T01:59:41.910Z,1008.64
2016-11-04T02:00:41.893Z,1008.64
2016-11-04T02:01:41.876Z,1008.65
2016-11-04T02:02:41.858Z,1008.65
2016-11-04T02:03:41.841Z,1008.66
2016-11-04T02:04:41.825Z,1008.63
2016-11-04T02:05:41.809Z,1008.66
2016-11-04T02:06:41.791Z,1008.66
2016-11-04T02:07:41.775Z,1008.6
2016-11-04T02:08:41.757Z,1008.63
2016-11-04T02:09:41.739Z,1008.6
2016-11-04T02:10:41.721Z,1008.58
2016-11-04T02:11:41.704Z,1008.54
2016-11-04T02:12:41.685Z,1008.49
2016-11-04T02:13:41.670Z,1008.46
2016-11-04T02:14:41.655Z,1008.47
2016-11-04T02:15:41.634Z,1008.4
2016-11-04T02:16:41.617Z,1008.41
2016-11-04T02:17:41.604Z,1008.42
2016-11-04T02:18:41.583Z,1008.39
2016-11-04T02:19:41.566Z,1008.38
2016-11-04T02:20:41.551Z,1008.42
2016-11-04T02:21:41.535Z,1008.37
2016-11-04T02:22:41.514Z,1008.36
2016-11-04T02:23:41.496Z,1008.34
2016-11-04T02:24:41.480Z,1008.35
2016-11-04T02:25:41.461Z,1008.34
2016-11-04T02:26:41.446Z,1008.4
2016-11-04T02:27:41.428Z,1008.4
2016-11-04T02:28:41.410Z,1008.42
2016-11-04T02:29:41.395Z,1008.39
2016-11-04T02:30:41.375Z,1008.38
2016-11-04T02:31:41.359Z,1008.31
2016-11-04T02:32:41.342Z,1008.31
2016-11-04T02:33:41.324Z,1008.3
2016-11-04T02:34:41.305Z,1008.29
2016-11-04T02:35:41.292Z,1008.25
2016-11-04T02:36:41.272Z,1008.28
2016-11-04T02:37:41.253Z,1008.24
2016-11-04T02:38:41.238Z,1008.29
2016-11-04T02:39:41.220Z,1008.3
2016-11-04T02:40:41.203Z,1008.25
2016-11-04T02:41:41.184Z,1008.27
2016-11-04T02:42:41.167Z,1008.28
2016-11-04T02:43:41.152Z,1008.19
2016-11-04T02:44:41.132Z,1008.23
2016-11-04T02:45:41.115Z,1008.19
2016-11-04T02:46:41.099Z,1008.13
2016-11-04T02:47:41.082Z,1008.11
2016-11-04T02:48:41.062Z,1008.05
2016-11-04T02:49:41.045Z,1008.02
2016-11-04T02:50:41.028Z,1008.02
2016-11-04T02:51:41.012Z,1008.06
2016-11-04T02:52:40.996Z,1008.05
2016-11-04T02:53:40.977Z,1008.03
2016-11-04T02:54:40.961Z,1008.02
2016-11-04T02:55:40.944Z,1007.99
2016-11-04T02:56:40.924Z,1008.01
2016-11-04T02:57:40.908Z,1008.06
2016-11-04T02:58:40.894Z,1008.09
2016-11-04T02:59:40.873Z,1008.06
2016-11-04T03:00:40.856Z,1008.06
2016-11-04T03:01:40.839Z,1008.02
2016-11-04T03:02:40.820Z,1008.01
2016-11-04T03:03:40.802Z,1008.06
2016-11-04T03:04:40.786Z,1008.01
2016-11-04T03:05:40.768Z,1007.99
2016-11-04T03:06:40.751Z,1008.01
2016-11-04T03:07:40.735Z,1008.03
2016-11-04T03:08:40.717Z,1008.03
2016-11-04T03:09:40.699Z,1008.02
2016-11-04T03:10:40.681Z,1007.96
2016-11-04T03:11:40.664Z,1007.96
2016-11-04T03:12:40.650Z,1007.93
2016-11-04T03:13:40.628Z,1007.92
2016-11-04T03:14:40.613Z,1007.89
2016-11-04T03:15:40.596Z,1007.91
2016-11-04T03:16:40.586Z,1007.91
2016-11-04T03:17:40.560Z,1007.94
2016-11-04T03:18:40.543Z,1007.93
2016-11-04T03:19:40.525Z,1007.9
2016-11-04T03:20:40.542Z,1007.9
2016-11-04T03:21:40.491Z,1007.91
2016-11-04T03:22:40.475Z,1007.88
2016-11-04T03:23:40.472Z,1007.85
2016-11-04T03:24:40.439Z,1007.87
2016-11-04T03:25:40.422Z,1007.86
2016-11-04T03:26:40.405Z,1007.85
2016-11-04T03:27:40.389Z,1007.87
2016-11-04T03:28:40.369Z,1007.85
2016-11-04T03:29:40.352Z,1007.84
2016-11-04T03:30:40.335Z,1007.83
2016-11-04T03:31:40.319Z,1007.85
2016-11-04T03:32:40.300Z,1007.81
2016-11-04T03:33:40.283Z,1007.79
2016-11-04T03:34:40.267Z,1007.75
2016-11-04T03:35:40.247Z,1007.72
2016-11-04T03:36:40.230Z,1007.74
2016-11-04T03:37:40.213Z,1007.74
2016-11-04T03:38:40.196Z,1007.7
2016-11-04T03:39:40.178Z,1007.75
2016-11-04T03:40:40.161Z,1007.72
2016-11-04T03:41:40.143Z,1007.76
2016-11-04T03:42:40.128Z,1007.74
2016-11-04T03:43:40.108Z,1007.75
2016-11-04T03:44:40.092Z,1007.78
2016-11-04T03:45:40.075Z,1007.81
2016-11-04T03:46:40.056Z,1007.75
2016-11-04T03:47:40.040Z,1007.76
2016-11-04T03:48:40.022Z,1007.72
2016-11-04T03:49:40.006Z,1007.74
2016-11-04T03:50:39.988Z,1007.7
2016-11-04T03:51:39.971Z,1007.69
2016-11-04T03:52:39.954Z,1007.69
2016-11-04T03:53:39.940Z,1007.71
2016-11-04T03:54:39.918Z,1007.66
2016-11-04T03:55:39.901Z,1007.66
2016-11-04T03:56:39.887Z,1007.62
2016-11-04T03:57:39.867Z,1007.61
2016-11-04T03:58:39.850Z,1007.61
2016-11-04T03:59:39.835Z,1007.58
2016-11-04T04:00:39.815Z,1007.53
2016-11-04T04:01:39.796Z,1007.51
2016-11-04T04:02:39.779Z,1007.51
2016-11-04T04:03:39.788Z,1007.45
2016-11-04T04:04:39.747Z,1007.42
2016-11-04T04:05:39.729Z,1007.42
2016-11-04T04:06:39.912Z,1007.43
2016-11-04T04:07:39.697Z,1007.38
2016-11-04T04:08:39.675Z,1007.38
2016-11-04T04:09:39.659Z,1007.38
2016-11-04T04:10:39.642Z,1007.41
2016-11-04T04:11:39.624Z,1007.38
2016-11-04T04:12:39.605Z,1007.39
2016-11-04T04:13:39.589Z,1007.41
2016-11-04T04:14:39.574Z,1007.37
2016-11-04T04:15:39.557Z,1007.34
2016-11-04T04:16:39.537Z,1007.37
2016-11-04T04:17:39.524Z,1007.36
2016-11-04T04:18:39.504Z,1007.35
2016-11-04T04:19:39.485Z,1007.38
2016-11-04T04:20:39.466Z,1007.36
2016-11-04T04:21:39.450Z,1007.28
2016-11-04T04:22:39.433Z,1007.33
2016-11-04T04:23:39.415Z,1007.31
2016-11-04T04:24:39.402Z,1007.31
2016-11-04T04:25:39.386Z,1007.3
2016-11-04T04:26:39.365Z,1007.29
2016-11-04T04:27:39.347Z,1007.26
2016-11-04T04:28:39.328Z,1007.21
2016-11-04T04:29:39.311Z,1007.22
2016-11-04T04:30:39.294Z,1007.19
2016-11-04T04:31:39.279Z,1007.17
2016-11-04T04:32:39.260Z,1007.15
2016-11-04T04:33:39.242Z,1007.22
2016-11-04T04:34:39.223Z,1007.19
2016-11-04T04:35:39.209Z,1007.13
2016-11-04T04:36:39.190Z,1007.17
2016-11-04T04:37:39.172Z,1007.16
2016-11-04T04:38:39.155Z,1007.15
2016-11-04T04:39:39.140Z,1007.1
2016-11-04T04:40:39.121Z,1007.17
2016-11-04T04:41:39.102Z,1007.12
2016-11-04T04:42:39.087Z,1007.13
2016-11-04T04:43:39.074Z,1007.08
2016-11-04T04:44:39.054Z,1007.08
2016-11-04T04:45:39.035Z,1007.04
2016-11-04T04:46:39.021Z,1007.09
2016-11-04T04:47:39.000Z,1007.01
2016-11-04T04:48:38.982Z,1007.01
2016-11-04T04:49:38.963Z,1007.02
2016-11-04T04:50:38.948Z,1007.07
2016-11-04T04:51:38.930Z,1007.01
2016-11-04T04:52:38.912Z,1007.06
2016-11-04T04:53:38.894Z,1007
2016-11-04T04:54:38.879Z,1006.98
2016-11-04T04:55:38.861Z,1007.04
2016-11-04T04:56:38.843Z,1006.98
2016-11-04T04:57:38.827Z,1007.03
2016-11-04T04:58:38.810Z,1007
2016-11-04T04:59:38.792Z,1006.99
2016-11-04T05:00:38.773Z,1007
2016-11-04T05:01:38.759Z,1006.99
2016-11-04T05:02:38.740Z,1006.98
2016-11-04T05:03:38.722Z,1006.94
2016-11-04T05:04:38.709Z,1006.98
2016-11-04T05:05:38.688Z,1006.96
2016-11-04T05:06:38.677Z,1006.99
2016-11-04T05:07:38.653Z,1006.97
2016-11-04T05:08:38.636Z,1006.98
2016-11-04T05:09:38.619Z,1006.94
2016-11-04T05:10:38.600Z,1006.95
2016-11-04T05:11:38.583Z,1006.89
2016-11-04T05:12:38.567Z,1006.91
2016-11-04T05:13:38.549Z,1006.85
2016-11-04T05:14:38.534Z,1006.87
2016-11-04T05:15:38.515Z,1006.86
2016-11-04T05:16:38.497Z,1006.85
2016-11-04T05:17:38.481Z,1006.83
2016-11-04T05:18:38.463Z,1006.81
2016-11-04T05:19:38.445Z,1006.83
2016-11-04T05:20:38.429Z,1006.8
2016-11-04T05:21:38.411Z,1006.74
2016-11-04T05:22:38.394Z,1006.76
2016-11-04T05:23:38.379Z,1006.74
2016-11-04T05:24:38.368Z,1006.77
2016-11-04T05:25:38.344Z,1006.77
2016-11-04T05:26:38.325Z,1006.76
2016-11-04T05:27:38.308Z,1006.74
2016-11-04T05:28:38.291Z,1006.78
2016-11-04T05:29:38.278Z,1006.76
2016-11-04T05:30:38.258Z,1006.76
2016-11-04T05:31:38.241Z,1006.79
2016-11-04T05:32:38.220Z,1006.76
2016-11-04T05:33:38.204Z,1006.77
2016-11-04T05:34:38.186Z,1006.8
2016-11-04T05:35:38.170Z,1006.79
2016-11-04T05:36:38.151Z,1006.77
2016-11-04T05:37:38.136Z,1006.77
2016-11-04T05:38:38.120Z,1006.86
2016-11-04T05:39:38.102Z,1006.88
2016-11-04T05:40:38.085Z,1006.76
2016-11-04T05:41:38.066Z,1006.84
2016-11-04T05:42:38.050Z,1006.78
2016-11-04T05:43:38.034Z,1006.81
2016-11-04T05:44:38.015Z,1006.8
2016-11-04T05:45:37.997Z,1006.82
2016-11-04T05:46:37.984Z,1006.84
2016-11-04T05:47:37.972Z,1006.82
2016-11-04T05:48:37.949Z,1006.84
2016-11-04T05:49:37.930Z,1006.82
2016-11-04T05:50:37.913Z,1006.85
2016-11-04T05:51:37.894Z,1006.83
2016-11-04T05:52:37.877Z,1006.8
2016-11-04T05:53:37.861Z,1006.83
2016-11-04T05:54:37.844Z,1006.83
2016-11-04T05:55:37.825Z,1006.87
2016-11-04T05:56:37.808Z,1006.82
2016-11-04T05:57:37.790Z,1006.81
2016-11-04T05:58:37.774Z,1006.79
2016-11-04T05:59:37.755Z,1006.75
2016-11-04T06:00:37.740Z,1006.81
2016-11-04T06:01:37.723Z,1006.74
2016-11-04T06:02:37.711Z,1006.79
2016-11-04T06:03:37.687Z,1006.75
2016-11-04T06:04:37.668Z,1006.73
2016-11-04T06:05:37.652Z,1006.75
2016-11-04T06:06:37.840Z,1006.71
2016-11-04T06:07:37.621Z,1006.68
2016-11-04T06:08:37.600Z,1006.7
2016-11-04T06:09:37.581Z,1006.72
2016-11-04T06:10:37.564Z,1006.7
2016-11-04T06:11:37.552Z,1006.69
2016-11-04T06:12:37.530Z,1006.68
2016-11-04T06:13:37.511Z,1006.66
2016-11-04T06:14:37.493Z,1006.67
2016-11-04T06:15:37.480Z,1006.62
2016-11-04T06:16:37.459Z,1006.6
2016-11-04T06:17:37.456Z,1006.56
2016-11-04T06:18:37.423Z,1006.58
2016-11-04T06:19:37.406Z,1006.6
2016-11-04T06:20:37.387Z,1006.63
2016-11-04T06:21:37.370Z,1006.67
2016-11-04T06:22:37.352Z,1006.68
2016-11-04T06:23:37.334Z,1006.7
2016-11-04T06:24:37.316Z,1006.68
2016-11-04T06:25:37.302Z,1006.7
2016-11-04T06:26:37.283Z,1006.68
2016-11-04T06:27:37.267Z,1006.75
2016-11-04T06:28:37.246Z,1006.67
2016-11-04T06:29:37.229Z,1006.63
2016-11-04T06:30:37.214Z,1006.68
2016-11-04T06:31:37.196Z,1006.65
2016-11-04T06:32:37.176Z,1006.64
2016-11-04T06:33:37.159Z,1006.62
2016-11-04T06:34:37.140Z,1006.67
2016-11-04T06:35:37.124Z,1006.64
2016-11-04T06:36:37.106Z,1006.62
2016-11-04T06:37:37.088Z,1006.61
2016-11-04T06:38:37.072Z,1006.6
2016-11-04T06:39:37.052Z,1006.53
2016-11-04T06:40:37.035Z,1006.49
2016-11-04T06:41:37.022Z,1006.45
2016-11-04T06:42:37.001Z,1006.39
2016-11-04T06:43:36.981Z,1006.38
2016-11-04T06:44:36.963Z,1006.35
2016-11-04T06:45:36.945Z,1006.39
2016-11-04T06:46:36.928Z,1006.41
2016-11-04T06:47:36.912Z,1006.47
2016-11-04T06:48:36.893Z,1006.5
2016-11-04T06:49:36.873Z,1006.54
2016-11-04T06:50:36.856Z,1006.55
2016-11-04T06:51:36.842Z,1006.57
2016-11-04T06:52:36.824Z,1006.57
2016-11-04T06:53:36.803Z,1006.56
2016-11-04T06:54:36.815Z,1006.6
2016-11-04T06:55:36.768Z,1006.54
2016-11-04T06:56:36.750Z,1006.55
2016-11-04T06:57:36.735Z,1006.54
2016-11-04T06:58:36.714Z,1006.58
2016-11-04T06:59:36.698Z,1006.58
2016-11-04T07:00:36.684Z,1006.56
2016-11-04T07:01:36.661Z,1006.57
2016-11-04T07:02:36.644Z,1006.57
2016-11-04T07:03:36.631Z,1006.58
2016-11-04T07:04:36.609Z,1006.6
2016-11-04T07:05:36.592Z,1006.61
2016-11-04T07:06:36.574Z,1006.58
2016-11-04T07:07:36.556Z,1006.55
2016-11-04T07:08:36.538Z,1006.59
2016-11-04T07:09:36.521Z,1006.6
2016-11-04T07:10:36.504Z,1006.61
2016-11-04T07:11:36.486Z,1006.58
2016-11-04T07:12:36.469Z,1006.56
2016-11-04T07:13:36.450Z,1006.48
2016-11-04T07:14:36.433Z,1006.47
2016-11-04T07:15:36.418Z,1006.47
2016-11-04T07:16:36.397Z,1006.44
2016-11-04T07:17:36.380Z,1006.43
2016-11-04T07:18:36.361Z,1006.39
2016-11-04T07:19:36.345Z,1006.4
2016-11-04T07:20:36.326Z,1006.35
2016-11-04T07:21:36.308Z,1006.39
2016-11-04T07:22:36.292Z,1006.42
2016-11-04T07:23:36.273Z,1006.38
2016-11-04T07:24:36.256Z,1006.41
2016-11-04T07:25:36.239Z,1006.42
2016-11-04T07:26:36.220Z,1006.4
2016-11-04T07:27:36.202Z,1006.4
2016-11-04T07:28:36.185Z,1006.39
2016-11-04T07:29:36.167Z,1006.36
2016-11-04T07:30:36.150Z,1006.28
2016-11-04T07:31:36.134Z,1006.34
2016-11-04T07:32:36.117Z,1006.26
2016-11-04T07:33:36.097Z,1006.29
2016-11-04T07:34:36.080Z,1006.27
2016-11-04T07:35:36.063Z,1006.29
2016-11-04T07:36:36.046Z,1006.23
2016-11-04T07:37:36.028Z,1006.25
2016-11-04T07:38:36.009Z,1006.26
2016-11-04T07:39:35.994Z,1006.25
2016-11-04T07:40:35.974Z,1006.28
2016-11-04T07:41:35.957Z,1006.24
2016-11-04T07:42:35.941Z,1006.27
2016-11-04T07:43:35.924Z,1006.18
2016-11-04T07:44:35.905Z,1006.22
2016-11-04T07:45:35.890Z,1006.21
2016-11-04T07:46:35.871Z,1006.26
2016-11-04T07:47:35.857Z,1006.23
2016-11-04T07:48:35.834Z,1006.28
2016-11-04T07:49:35.819Z,1006.27
2016-11-04T07:50:35.803Z,1006.27
2016-11-04T07:51:35.784Z,1006.24
2016-11-04T07:52:35.765Z,1006.24
2016-11-04T07:53:35.748Z,1006.23
2016-11-04T07:54:35.732Z,1006.23
2016-11-04T07:55:35.714Z,1006.22
2016-11-04T07:56:35.697Z,1006.17
2016-11-04T07:57:35.680Z,1006.2
2016-11-04T07:58:35.662Z,1006.21
2016-11-04T07:59:35.644Z,1006.12
2016-11-04T08:00:35.627Z,1006.18
2016-11-04T08:01:35.612Z,1006.14
2016-11-04T08:02:35.595Z,1006.16
2016-11-04T08:03:35.580Z,1006.16
2016-11-04T08:04:35.559Z,1006.16
2016-11-04T08:05:35.541Z,1006.13
2016-11-04T08:06:35.726Z,1006.13
2016-11-04T08:07:35.508Z,1006.11
2016-11-04T08:08:35.493Z,1006.12
2016-11-04T08:09:35.474Z,1006.07
2016-11-04T08:10:35.457Z,1006.07
2016-11-04T08:11:35.439Z,1006.12
2016-11-04T08:12:35.424Z,1006.08
2016-11-04T08:13:35.404Z,1006.04
2016-11-04T08:14:35.388Z,1006.06
2016-11-04T08:15:35.372Z,1006.08
2016-11-04T08:16:35.354Z,1006.02
2016-11-04T08:17:35.338Z,1006.04
2016-11-04T08:18:35.332Z,1006.02
2016-11-04T08:19:35.305Z,1006.02
2016-11-04T08:20:35.288Z,1006.01
2016-11-04T08:21:35.271Z,1005.98
2016-11-04T08:22:35.255Z,1006.01
2016-11-04T08:23:35.239Z,1005.99
2016-11-04T08:24:35.229Z,1005.97
2016-11-04T08:25:35.207Z,1006
2016-11-04T08:26:35.193Z,1006.01
2016-11-04T08:27:35.177Z,1006.01
2016-11-04T08:28:35.158Z,1005.99
2016-11-04T08:29:35.141Z,1005.99
2016-11-04T08:30:35.125Z,1005.94
2016-11-04T08:31:35.108Z,1006.01
2016-11-04T08:32:35.094Z,1006.01
2016-11-04T08:33:35.077Z,1005.94
2016-11-04T08:34:35.063Z,1005.94
2016-11-04T08:35:35.044Z,1005.97
2016-11-04T08:36:35.030Z,1005.96
2016-11-04T08:37:35.014Z,1005.94
2016-11-04T08:38:34.999Z,1005.89
2016-11-04T08:39:34.981Z,1005.86
2016-11-04T08:40:34.966Z,1005.88
2016-11-04T08:41:34.951Z,1005.85
2016-11-04T08:42:34.932Z,1005.87
2016-11-04T08:43:34.918Z,1005.83
2016-11-04T08:44:34.904Z,1005.86
2016-11-04T08:45:34.888Z,1005.82
2016-11-04T08:46:34.871Z,1005.8
2016-11-04T08:47:34.856Z,1005.78
2016-11-04T08:48:34.839Z,1005.83
2016-11-04T08:49:34.823Z,1005.78
2016-11-04T08:50:34.811Z,1005.79
2016-11-04T08:51:34.791Z,1005.79
2016-11-04T08:52:34.778Z,1005.78
2016-11-04T08:53:34.760Z,1005.78
2016-11-04T08:54:34.745Z,1005.73
2016-11-04T08:55:34.729Z,1005.72
2016-11-04T08:56:34.714Z,1005.7
2016-11-04T08:57:34.698Z,1005.68
2016-11-04T08:58:34.682Z,1005.66
2016-11-04T08:59:34.667Z,1005.66
2016-11-04T09:00:34.654Z,1005.63
2016-11-04T09:01:34.635Z,1005.66
2016-11-04T09:02:34.622Z,1005.65
2016-11-04T09:03:34.605Z,1005.63
2016-11-04T09:04:34.588Z,1005.61
2016-11-04T09:05:34.573Z,1005.6
2016-11-04T09:06:34.558Z,1005.57
2016-11-04T09:07:34.543Z,1005.58
2016-11-04T09:08:34.525Z,1005.52
2016-11-04T09:09:34.511Z,1005.52
2016-11-04T09:10:34.497Z,1005.55
2016-11-04T09:11:34.483Z,1005.54
2016-11-04T09:12:34.466Z,1005.59
2016-11-04T09:13:34.450Z,1005.53
2016-11-04T09:14:34.435Z,1005.54
2016-11-04T09:15:34.420Z,1005.49
2016-11-04T09:16:34.404Z,1005.52
2016-11-04T09:17:34.390Z,1005.5
2016-11-04T09:18:34.374Z,1005.48
2016-11-04T09:19:34.357Z,1005.47
2016-11-04T09:20:34.343Z,1005.45
2016-11-04T09:21:34.327Z,1005.46
2016-11-04T09:22:34.311Z,1005.42
2016-11-04T09:23:34.297Z,1005.41
2016-11-04T09:24:34.283Z,1005.45
2016-11-04T09:25:34.268Z,1005.38
2016-11-04T09:26:34.254Z,1005.39
2016-11-04T09:27:34.242Z,1005.37
2016-11-04T09:28:34.221Z,1005.33
2016-11-04T09:29:34.206Z,1005.34
2016-11-04T09:30:34.191Z,1005.32
2016-11-04T09:31:34.177Z,1005.29
2016-11-04T09:32:34.160Z,1005.33
2016-11-04T09:33:34.146Z,1005.3
2016-11-04T09:34:34.131Z,1005.29
2016-11-04T09:35:34.114Z,1005.35
2016-11-04T09:36:34.175Z,1005.34
2016-11-04T09:37:34.098Z,1005.36
2016-11-04T09:38:34.070Z,1005.32
2016-11-04T09:39:34.064Z,1005.3
2016-11-04T09:40:34.040Z,1005.26
2016-11-04T09:41:34.024Z,1005.27
2016-11-04T09:42:34.012Z,1005.29
2016-11-04T09:43:34.019Z,1005.25
2016-11-04T09:44:33.979Z,1005.26
2016-11-04T09:45:33.964Z,1005.23
2016-11-04T09:46:33.951Z,1005.22
2016-11-04T09:47:33.935Z,1005.22
2016-11-04T09:48:33.920Z,1005.25
2016-11-04T09:49:33.909Z,1005.27
2016-11-04T09:50:33.893Z,1005.29
2016-11-04T09:51:33.876Z,1005.22
2016-11-04T09:52:33.860Z,1005.28
2016-11-04T09:53:33.847Z,1005.25
2016-11-04T09:54:33.836Z,1005.2
2016-11-04T09:55:33.818Z,1005.25
2016-11-04T09:56:33.802Z,1005.21
2016-11-04T09:57:33.795Z,1005.21
2016-11-04T09:58:33.774Z,1005.24
2016-11-04T09:59:33.761Z,1005.27
2016-11-04T10:00:33.748Z,1005.2
2016-11-04T10:01:33.733Z,1005.23
2016-11-04T10:02:33.721Z,1005.2
2016-11-04T10:03:33.705Z,1005.21
2016-11-04T10:04:33.691Z,1005.18
2016-11-04T10:05:33.678Z,1005.18
2016-11-04T10:06:33.865Z,1005.12
2016-11-04T10:07:33.650Z,1005.11
2016-11-04T10:08:33.635Z,1005.1
2016-11-04T10:09:33.621Z,1005.13
2016-11-04T10:10:33.607Z,1005.05
2016-11-04T10:11:33.592Z,1005.07
2016-11-04T10:12:33.581Z,1005.03
2016-11-04T10:13:33.566Z,1005.03
2016-11-04T10:14:33.552Z,1004.93
2016-11-04T10:15:33.541Z,1005
2016-11-04T10:16:33.524Z,1004.98
2016-11-04T10:17:33.513Z,1004.98
2016-11-04T10:18:33.498Z,1004.95
2016-11-04T10:19:33.484Z,1004.91
2016-11-04T10:20:33.470Z,1004.93
2016-11-04T10:21:33.459Z,1004.91
2016-11-04T10:22:33.445Z,1004.87
2016-11-04T10:23:33.432Z,1004.92
2016-11-04T10:24:33.414Z,1004.89
2016-11-04T10:25:33.402Z,1004.86
2016-11-04T10:26:33.387Z,1004.86
2016-11-04T10:27:33.374Z,1004.88
2016-11-04T10:28:33.361Z,1004.91
2016-11-04T10:29:33.347Z,1004.86
2016-11-04T10:30:33.334Z,1004.92
2016-11-04T10:31:33.321Z,1004.89
2016-11-04T10:32:33.310Z,1004.89
2016-11-04T10:33:33.295Z,1004.82
2016-11-04T10:34:33.283Z,1004.81
2016-11-04T10:35:33.270Z,1004.79
2016-11-04T10:36:33.257Z,1004.81
2016-11-04T10:37:33.246Z,1004.76
2016-11-04T10:38:33.235Z,1004.77
2016-11-04T10:39:33.217Z,1004.73
2016-11-04T10:40:33.206Z,1004.67
2016-11-04T10:41:33.195Z,1004.67
2016-11-04T10:42:33.212Z,1004.69
2016-11-04T10:43:33.168Z,1004.73
2016-11-04T10:44:33.156Z,1004.62
2016-11-04T10:45:33.144Z,1004.64
2016-11-04T10:46:33.134Z,1004.67
2016-11-04T10:47:33.121Z,1004.68
2016-11-04T10:48:33.112Z,1004.67
2016-11-04T10:49:33.098Z,1004.66
2016-11-04T10:50:33.088Z,1004.66
2016-11-04T10:51:33.074Z,1004.65
2016-11-04T10:52:33.064Z,1004.63
2016-11-04T10:53:33.051Z,1004.67
2016-11-04T10:54:33.039Z,1004.66
2016-11-04T10:55:33.027Z,1004.63
2016-11-04T10:56:33.019Z,1004.6
2016-11-04T10:57:33.005Z,1004.59
2016-11-04T10:58:32.994Z,1004.59
2016-11-04T10:59:32.981Z,1004.62
2016-11-04T11:00:32.972Z,1004.63
2016-11-04T11:01:32.958Z,1004.63
2016-11-04T11:02:32.945Z,1004.66
2016-11-04T11:03:32.934Z,1004.59
2016-11-04T11:04:32.924Z,1004.66
2016-11-04T11:05:32.910Z,1004.6
2016-11-04T11:06:32.900Z,1004.59
2016-11-04T11:07:32.891Z,1004.6
2016-11-04T11:08:32.878Z,1004.59
2016-11-04T11:09:32.867Z,1004.61
2016-11-04T11:10:32.855Z,1004.62
2016-11-04T11:11:32.859Z,1004.64
2016-11-04T11:12:32.833Z,1004.63
2016-11-04T11:13:32.823Z,1004.57
2016-11-04T11:14:32.812Z,1004.58
2016-11-04T11:15:32.802Z,1004.57
2016-11-04T11:16:32.794Z,1004.57
2016-11-04T11:17:32.781Z,1004.52
2016-11-04T11:18:32.770Z,1004.5
2016-11-04T11:19:32.765Z,1004.5
2016-11-04T11:20:32.751Z,1004.48
2016-11-04T11:21:32.742Z,1004.45
2016-11-04T11:22:32.730Z,1004.46
2016-11-04T11:23:32.720Z,1004.42
2016-11-04T11:24:32.708Z,1004.42
2016-11-04T11:25:32.699Z,1004.4
2016-11-04T11:26:32.689Z,1004.43
2016-11-04T11:27:32.682Z,1004.42
2016-11-04T11:28:32.669Z,1004.5
2016-11-04T11:29:32.658Z,1004.44
2016-11-04T11:30:32.646Z,1004.45
2016-11-04T11:31:32.637Z,1004.4
2016-11-04T11:32:32.628Z,1004.4
2016-11-04T11:33:32.616Z,1004.47
2016-11-04T11:34:32.607Z,1004.4
2016-11-04T11:35:32.594Z,1004.42
2016-11-04T11:36:32.586Z,1004.45
2016-11-04T11:37:32.573Z,1004.41
2016-11-04T11:38:32.562Z,1004.47
2016-11-04T11:39:32.554Z,1004.41
2016-11-04T11:40:32.545Z,1004.33
2016-11-04T11:41:32.531Z,1004.37
2016-11-04T11:42:32.521Z,1004.32
2016-11-04T11:43:32.510Z,1004.29
2016-11-04T11:44:32.501Z,1004.28
2016-11-04T11:45:32.490Z,1004.25
2016-11-04T11:46:32.481Z,1004.28
2016-11-04T11:47:32.471Z,1004.27
2016-11-04T11:48:32.461Z,1004.23
2016-11-04T11:49:32.452Z,1004.24
2016-11-04T11:50:32.441Z,1004.2
2016-11-04T11:51:32.432Z,1004.22
2016-11-04T11:52:32.420Z,1004.23
2016-11-04T11:53:32.412Z,1004.23
2016-11-04T11:54:32.403Z,1004.21
2016-11-04T11:55:32.394Z,1004.18
2016-11-04T11:56:32.408Z,1004.15
2016-11-04T11:57:32.373Z,1004.07
2016-11-04T11:58:32.365Z,1004.07
2016-11-04T11:59:32.355Z,1004.07
2016-11-04T12:00:32.344Z,1004.07
2016-11-04T12:01:32.335Z,1004.04
2016-11-04T12:02:32.327Z,1004.02
2016-11-04T12:03:32.315Z,1004.09
2016-11-04T12:04:32.306Z,1004.01
2016-11-04T12:05:32.297Z,1004.06
2016-11-04T12:06:32.488Z,1004.07
2016-11-04T12:07:32.278Z,1004
2016-11-04T12:08:32.267Z,1004.03